Time;durP1;ratioP1;P1;durP2;ratioP2;P2;SDS_P1;SDS_P2;PMS_P1;PMS_P2;Temp;Humidity;BMP_temperature;BMP_pressure;BME280_temperature;BME280_humidity;BME280_pressure;Samples;Min_cycle;Max_cycle;Signal;HPM_P1;HPM_P2
2021/12/30 00:01:47;;;;;;;;;;;19.50;40.90;;;;;;4969292;28;19973;-64
2021/12/30 00:04:12;;;;;;;;;;;19.40;41.00;;;;;;4954208;29;20359;-64
2021/12/30 00:06:39;;;;;;;;;;;19.40;41.20;;;;;;4952845;28;20294;-63
2021/12/30 00:09:05;;;;;;;;;;;19.30;41.10;;;;;;4954097;29;20016;-63
2021/12/30 00:11:30;;;;;;;;;;;19.30;41.20;;;;;;4953947;29;19954;-63
2021/12/30 00:13:56;;;;;;;;;;;19.30;41.20;;;;;;4953925;29;19914;-63
2021/12/30 00:16:21;;;;;;;;;;;19.30;41.20;;;;;;4953645;29;19950;-63
2021/12/30 00:18:47;;;;;;;;;;;19.30;41.30;;;;;;4977550;28;20295;-63
2021/12/30 00:21:12;;;;;;;;;;;19.30;41.20;;;;;;4946445;29;20355;-63
2021/12/30 00:23:38;;;;;;;;;;;19.20;41.20;;;;;;4954123;29;20447;-63
2021/12/30 00:26:03;;;;;;;;;;;19.20;41.30;;;;;;4984940;28;19973;-63
2021/12/30 00:28:29;;;;;;;;;;;19.20;41.30;;;;;;4954090;29;19958;-63
2021/12/30 00:30:54;;;;;;;;;;;19.20;41.40;;;;;;4968538;28;20009;-63
2021/12/30 00:33:20;;;;;;;;;;;19.10;41.40;;;;;;4985367;28;19914;-63
2021/12/30 00:35:46;;;;;;;;;;;19.10;41.50;;;;;;4979375;28;19961;-63
2021/12/30 00:38:11;;;;;;;;;;;19.10;41.50;;;;;;4954010;29;19917;-63
2021/12/30 00:40:37;;;;;;;;;;;19.10;41.50;;;;;;4953579;29;19914;-63
2021/12/30 00:43:02;;;;;;;;;;;19.00;41.50;;;;;;4965230;28;20013;-63
2021/12/30 00:45:28;;;;;;;;;;;19.00;41.60;;;;;;4953715;29;19915;-63
2021/12/30 00:47:53;;;;;;;;;;;19.00;41.60;;;;;;4953094;29;19922;-63
2021/12/30 00:50:19;;;;;;;;;;;19.00;41.70;;;;;;4953221;29;19924;-62
2021/12/30 00:52:44;;;;;;;;;;;19.00;41.80;;;;;;4980844;28;19921;-63
2021/12/30 00:55:10;;;;;;;;;;;18.90;42.00;;;;;;4953102;29;20306;-62
2021/12/30 00:57:35;;;;;;;;;;;18.90;42.00;;;;;;4953361;29;19942;-63
2021/12/30 01:00:03;;;;;;;;;;;19.00;42.10;;;;;;4968288;28;19914;-63
2021/12/30 01:02:28;;;;;;;;;;;19.00;42.10;;;;;;4981171;28;19961;-63
2021/12/30 01:04:53;;;;;;;;;;;18.90;42.20;;;;;;4944566;29;19973;-63
2021/12/30 01:07:21;;;;;;;;;;;19.00;42.20;;;;;;4950695;29;20016;-63
2021/12/30 01:09:46;;;;;;;;;;;19.00;42.20;;;;;;4953251;29;19973;-63
2021/12/30 01:12:14;;;;;;;;;;;19.00;42.30;;;;;;4952604;29;21382;-64
2021/12/30 01:14:39;;;;;;;;;;;19.00;42.20;;;;;;4952822;29;19932;-63
2021/12/30 01:17:38;;;;;;;;;;;19.10;42.30;;;;;;4985735;28;19921;-63
2021/12/30 01:20:04;;;;;;;;;;;19.00;42.30;;;;;;4955950;29;20319;-63
2021/12/30 01:22:29;;;;;;;;;;;19.00;42.50;;;;;;4955964;28;19966;-63
2021/12/30 01:24:55;;;;;;;;;;;19.00;42.60;;;;;;4956800;28;19915;-62
2021/12/30 01:27:20;;;;;;;;;;;18.90;42.70;;;;;;4956454;29;19936;-63
2021/12/30 01:29:47;;;;;;;;;;;18.90;43.00;;;;;;4946835;29;20364;-63
2021/12/30 01:32:12;;;;;;;;;;;18.80;43.10;;;;;;4984679;28;19965;-63
2021/12/30 01:34:37;;;;;;;;;;;18.80;43.30;;;;;;4987830;28;19957;-63
2021/12/30 01:37:04;;;;;;;;;;;18.80;43.40;;;;;;4955854;29;19934;-63
2021/12/30 01:39:30;;;;;;;;;;;18.80;43.40;;;;;;4956334;29;19982;-63
2021/12/30 01:41:56;;;;;;;;;;;18.70;43.40;;;;;;4987987;28;19949;-63
2021/12/30 01:44:21;;;;;;;;;;;18.70;43.70;;;;;;4956112;29;19914;-63
2021/12/30 01:46:47;;;;;;;;;;;18.70;43.80;;;;;;4987302;28;19914;-63
2021/12/30 01:49:12;;;;;;;;;;;18.70;43.80;;;;;;4956376;29;19944;-63
2021/12/30 01:51:38;;;;;;;;;;;18.60;43.90;;;;;;4986804;28;20389;-63
2021/12/30 01:54:03;;;;;;;;;;;18.60;44.20;;;;;;4987257;28;19937;-63
2021/12/30 01:56:29;;;;;;;;;;;18.60;44.20;;;;;;4955704;29;19963;-62
2021/12/30 01:58:54;;;;;;;;;;;18.60;44.20;;;;;;4955946;29;19930;-63
2021/12/30 02:01:20;;;;;;;;;;;18.60;44.40;;;;;;4955794;29;20437;-63
2021/12/30 02:03:46;;;;;;;;;;;18.60;44.30;;;;;;4955958;29;19914;-63
2021/12/30 02:06:11;;;;;;;;;;;18.60;44.30;;;;;;4986267;28;19950;-62
2021/12/30 02:08:36;;;;;;;;;;;18.50;44.20;;;;;;4956167;29;19933;-63
2021/12/30 02:11:02;;;;;;;;;;;18.50;44.30;;;;;;4954402;29;19925;-62
2021/12/30 02:13:27;;;;;;;;;;;18.50;44.20;;;;;;4956076;29;20371;-63
2021/12/30 02:16:00;;;;;;;;;;;18.50;44.20;;;;;;4954964;29;19926;-63
2021/12/30 02:18:25;;;;;;;;;;;18.50;44.30;;;;;;4951472;28;20236;-63
2021/12/30 02:20:54;;;;;;;;;;;18.50;44.30;;;;;;4935505;29;19911;-63
2021/12/30 02:23:24;;;;;;;;;;;18.50;44.40;;;;;;4955951;29;19927;-63
2021/12/30 02:25:50;;;;;;;;;;;18.50;44.50;;;;;;4956015;29;19921;-63
2021/12/30 02:28:17;;;;;;;;;;;18.50;44.30;;;;;;4955427;28;19922;-63
2021/12/30 02:30:42;;;;;;;;;;;18.60;44.10;;;;;;4955859;29;19914;-63
2021/12/30 02:33:08;;;;;;;;;;;18.80;44.00;;;;;;4955846;29;20331;-63
2021/12/30 02:35:33;;;;;;;;;;;19.00;43.60;;;;;;4955366;29;20001;-63
2021/12/30 02:37:59;;;;;;;;;;;19.20;43.40;;;;;;4955578;29;19911;-63
2021/12/30 02:40:28;;;;;;;;;;;19.50;43.00;;;;;;4955809;29;20271;-63
2021/12/30 02:42:54;;;;;;;;;;;19.70;42.80;;;;;;4986877;28;19911;-64
2021/12/30 02:45:19;;;;;;;;;;;19.90;42.50;;;;;;4955816;29;20307;-63
2021/12/30 02:47:44;;;;;;;;;;;20.00;42.30;;;;;;4955396;29;19918;-63
2021/12/30 02:50:10;;;;;;;;;;;20.20;42.00;;;;;;4955369;29;19919;-63
2021/12/30 02:52:35;;;;;;;;;;;20.40;41.80;;;;;;4945604;29;20379;-62
2021/12/30 02:55:01;;;;;;;;;;;20.60;41.60;;;;;;4949864;29;20005;-64
2021/12/30 02:57:26;;;;;;;;;;;20.70;41.30;;;;;;4954643;28;19978;-63
2021/12/30 02:59:52;;;;;;;;;;;20.80;41.20;;;;;;4955716;28;20005;-63
2021/12/30 03:02:17;;;;;;;;;;;20.80;41.00;;;;;;4986289;28;20290;-64
2021/12/30 03:04:43;;;;;;;;;;;20.90;40.90;;;;;;4955322;29;20419;-64
2021/12/30 03:07:08;;;;;;;;;;;21.00;40.80;;;;;;4953154;29;20327;-64
2021/12/30 03:09:34;;;;;;;;;;;21.10;40.60;;;;;;4986281;28;19993;-63
2021/12/30 03:12:00;;;;;;;;;;;21.20;40.60;;;;;;4955477;29;19914;-63
2021/12/30 03:14:26;;;;;;;;;;;21.20;40.50;;;;;;4953957;29;19949;-64
2021/12/30 03:16:52;;;;;;;;;;;21.20;40.40;;;;;;4952985;29;20298;-63
2021/12/30 03:19:17;;;;;;;;;;;21.20;40.40;;;;;;4955012;29;19926;-63
2021/12/30 03:21:43;;;;;;;;;;;21.20;40.40;;;;;;4954234;29;20002;-63
2021/12/30 03:24:08;;;;;;;;;;;21.20;40.40;;;;;;4955209;29;19910;-63
2021/12/30 03:26:35;;;;;;;;;;;21.20;40.40;;;;;;4954571;29;19969;-63
2021/12/30 03:29:00;;;;;;;;;;;21.20;40.40;;;;;;4949885;29;19915;-64
2021/12/30 03:31:26;;;;;;;;;;;21.10;40.30;;;;;;4935720;29;20339;-63
2021/12/30 03:33:51;;;;;;;;;;;21.10;40.40;;;;;;4937313;29;20316;-61
2021/12/30 03:36:17;;;;;;;;;;;21.10;40.40;;;;;;4954184;28;20387;-62
2021/12/30 03:38:43;;;;;;;;;;;21.10;40.50;;;;;;4954893;29;19914;-63
2021/12/30 03:41:09;;;;;;;;;;;21.10;40.50;;;;;;4953655;28;19917;-63
2021/12/30 03:43:35;;;;;;;;;;;21.10;40.60;;;;;;4954619;29;19914;-64
2021/12/30 03:46:00;;;;;;;;;;;21.00;40.50;;;;;;4954331;29;19918;-63
2021/12/30 03:48:32;;;;;;;;;;;21.00;40.50;;;;;;4955027;28;19911;-63
2021/12/30 03:50:58;;;;;;;;;;;21.00;40.60;;;;;;4989505;28;19946;-63
2021/12/30 03:53:23;;;;;;;;;;;21.10;40.60;;;;;;4954608;29;19915;-63
2021/12/30 03:55:51;;;;;;;;;;;21.00;40.60;;;;;;4954113;29;20378;-63
2021/12/30 03:58:17;;;;;;;;;;;21.00;40.60;;;;;;4954628;29;19914;-63
2021/12/30 04:00:42;;;;;;;;;;;21.00;40.60;;;;;;4954311;28;19914;-63
2021/12/30 04:03:08;;;;;;;;;;;21.00;40.60;;;;;;4953990;29;20066;-63
2021/12/30 04:05:33;;;;;;;;;;;21.00;41.30;;;;;;4954060;29;19915;-64
2021/12/30 04:07:59;;;;;;;;;;;21.00;40.60;;;;;;4954013;29;19917;-63
2021/12/30 04:10:24;;;;;;;;;;;21.00;40.60;;;;;;4954105;29;19918;-63
2021/12/30 04:12:50;;;;;;;;;;;21.00;40.60;;;;;;4985384;28;19918;-63
2021/12/30 04:15:15;;;;;;;;;;;21.00;40.60;;;;;;4954036;29;19960;-64
2021/12/30 04:17:41;;;;;;;;;;;21.00;40.60;;;;;;4953830;29;20013;-62
2021/12/30 04:20:08;;;;;;;;;;;21.00;40.60;;;;;;4971424;28;20674;-64
2021/12/30 04:22:34;;;;;;;;;;;21.00;40.70;;;;;;4984167;28;20005;-63
2021/12/30 04:24:59;;;;;;;;;;;21.00;40.70;;;;;;4954368;29;19917;-63
2021/12/30 04:27:25;;;;;;;;;;;20.90;40.80;;;;;;4952457;29;19914;-63
2021/12/30 04:29:50;;;;;;;;;;;20.80;40.90;;;;;;4954015;29;19918;-63
2021/12/30 04:32:16;;;;;;;;;;;20.80;41.10;;;;;;4954137;29;19917;-63
2021/12/30 04:34:41;;;;;;;;;;;20.70;41.20;;;;;;4954100;29;19914;-63
2021/12/30 04:37:07;;;;;;;;;;;20.70;41.20;;;;;;4953223;29;20418;-63
2021/12/30 04:39:32;;;;;;;;;;;20.70;41.30;;;;;;4953772;29;20378;-64
2021/12/30 04:42:03;;;;;;;;;;;20.70;41.20;;;;;;4984725;28;19937;-63
2021/12/30 04:44:29;;;;;;;;;;;20.80;41.20;;;;;;4983792;28;19933;-63
2021/12/30 04:46:55;;;;;;;;;;;20.80;41.20;;;;;;4953880;29;19997;-63
2021/12/30 04:49:21;;;;;;;;;;;20.80;41.00;;;;;;4954031;29;20457;-63
2021/12/30 04:51:46;;;;;;;;;;;20.90;40.90;;;;;;4951349;28;19918;-63
2021/12/30 04:54:12;;;;;;;;;;;20.90;40.80;;;;;;4938776;29;20268;-61
2021/12/30 04:56:37;;;;;;;;;;;21.00;40.80;;;;;;4977974;28;20023;-63
2021/12/30 04:59:02;;;;;;;;;;;21.10;40.80;;;;;;4957828;29;20009;-63
2021/12/30 05:01:28;;;;;;;;;;;21.10;40.70;;;;;;4988537;28;19922;-63
2021/12/30 05:03:53;;;;;;;;;;;21.10;40.60;;;;;;4957411;29;20434;-63
2021/12/30 05:06:19;;;;;;;;;;;21.20;40.60;;;;;;4988094;28;20322;-63
2021/12/30 05:08:44;;;;;;;;;;;21.20;40.60;;;;;;4957271;29;19981;-63
2021/12/30 05:11:10;;;;;;;;;;;21.20;40.50;;;;;;4957337;29;19919;-64
2021/12/30 05:13:35;;;;;;;;;;;21.20;40.50;;;;;;4988465;28;20058;-63
2021/12/30 05:16:01;;;;;;;;;;;21.20;40.50;;;;;;4956763;29;19925;-63
2021/12/30 05:18:33;;;;;;;;;;;21.20;40.50;;;;;;4986844;28;19914;-63
2021/12/30 05:20:59;;;;;;;;;;;21.20;40.60;;;;;;4956682;28;20005;-63
2021/12/30 05:23:25;;;;;;;;;;;21.20;40.60;;;;;;4988472;28;19946;-63
2021/12/30 05:25:51;;;;;;;;;;;21.10;40.60;;;;;;4956943;28;19919;-64
2021/12/30 05:28:16;;;;;;;;;;;21.10;40.60;;;;;;4957207;29;20390;-63
2021/12/30 05:30:41;;;;;;;;;;;21.10;40.60;;;;;;4956643;29;19925;-63
2021/12/30 05:33:07;;;;;;;;;;;21.10;40.60;;;;;;4957093;29;19920;-64
2021/12/30 05:35:32;;;;;;;;;;;21.10;40.60;;;;;;4956361;29;19918;-63
2021/12/30 05:38:00;;;;;;;;;;;21.10;40.60;;;;;;4971363;28;19911;-63
2021/12/30 05:40:25;;;;;;;;;;;21.10;40.60;;;;;;4957184;28;19957;-64
2021/12/30 05:42:51;;;;;;;;;;;21.10;40.60;;;;;;4955260;29;19918;-63
2021/12/30 05:45:16;;;;;;;;;;;21.10;40.60;;;;;;4956895;29;19915;-63
2021/12/30 05:47:42;;;;;;;;;;;21.10;40.60;;;;;;4955459;29;19911;-63
2021/12/30 05:50:08;;;;;;;;;;;21.10;40.60;;;;;;4987697;28;20029;-63
2021/12/30 05:52:34;;;;;;;;;;;21.10;40.70;;;;;;4955255;28;19919;-63
2021/12/30 05:54:59;;;;;;;;;;;21.10;40.70;;;;;;4956892;29;20406;-63
2021/12/30 05:57:24;;;;;;;;;;;21.10;40.70;;;;;;4956447;29;19911;-63
2021/12/30 05:59:50;;;;;;;;;;;21.10;40.70;;;;;;4971729;28;19914;-63
2021/12/30 06:02:15;;;;;;;;;;;21.10;40.70;;;;;;4956522;29;19918;-64
2021/12/30 06:04:41;;;;;;;;;;;21.10;40.70;;;;;;4970592;28;20421;-64
2021/12/30 06:07:07;;;;;;;;;;;21.20;40.70;;;;;;4955904;28;19914;-63
2021/12/30 06:09:33;;;;;;;;;;;21.20;40.70;;;;;;4956440;28;19932;-64
2021/12/30 06:11:58;;;;;;;;;;;21.20;40.70;;;;;;4956357;29;19911;-64
2021/12/30 06:14:24;;;;;;;;;;;21.20;40.70;;;;;;4956408;29;19918;-63
2021/12/30 06:16:49;;;;;;;;;;;21.20;40.70;;;;;;4956097;29;20095;-63
2021/12/30 06:19:14;;;;;;;;;;;21.20;40.70;;;;;;4949126;29;19922;-63
2021/12/30 06:21:40;;;;;;;;;;;21.20;40.70;;;;;;4955482;29;20359;-63
2021/12/30 06:24:05;;;;;;;;;;;21.20;40.70;;;;;;4956295;29;20358;-63
2021/12/30 06:26:31;;;;;;;;;;;21.20;40.70;;;;;;4955617;28;20362;-63
2021/12/30 06:28:56;;;;;;;;;;;21.20;40.70;;;;;;4956119;29;19914;-63
2021/12/30 06:31:22;;;;;;;;;;;21.20;40.70;;;;;;4956009;29;19914;-63
2021/12/30 06:33:47;;;;;;;;;;;21.20;40.70;;;;;;4956175;29;19956;-63
2021/12/30 06:36:13;;;;;;;;;;;21.20;40.70;;;;;;4986312;28;20263;-63
2021/12/30 06:38:38;;;;;;;;;;;21.20;40.70;;;;;;4956075;29;20359;-63
2021/12/30 06:41:04;;;;;;;;;;;21.20;40.80;;;;;;4986815;28;19958;-63
2021/12/30 06:43:29;;;;;;;;;;;21.20;40.70;;;;;;4955925;29;19961;-63
2021/12/30 06:45:55;;;;;;;;;;;21.20;40.70;;;;;;4954397;29;19921;-63
2021/12/30 06:48:20;;;;;;;;;;;21.20;40.70;;;;;;4955350;29;19918;-63
2021/12/30 06:50:51;;;;;;;;;;;21.20;40.70;;;;;;4955076;29;19921;-63
2021/12/30 06:53:20;;;;;;;;;;;21.20;40.70;;;;;;4977191;28;19992;-64
2021/12/30 06:55:46;;;;;;;;;;;21.20;40.70;;;;;;4936201;29;19914;-63
2021/12/30 06:58:12;;;;;;;;;;;21.20;40.80;;;;;;4951753;29;19915;-63
2021/12/30 07:00:37;;;;;;;;;;;21.20;40.80;;;;;;4955497;29;19922;-63
2021/12/30 07:03:03;;;;;;;;;;;21.20;40.80;;;;;;4955434;29;19917;-63
2021/12/30 07:05:28;;;;;;;;;;;21.20;40.80;;;;;;4953980;29;19918;-63
2021/12/30 07:07:53;;;;;;;;;;;21.20;40.80;;;;;;4954981;29;19917;-63
2021/12/30 07:10:19;;;;;;;;;;;21.30;40.90;;;;;;4970322;28;20009;-63
2021/12/30 07:12:44;;;;;;;;;;;21.20;40.80;;;;;;4955087;29;19910;-63
2021/12/30 07:15:10;;;;;;;;;;;21.20;40.80;;;;;;4953900;28;19923;-63
2021/12/30 07:17:35;;;;;;;;;;;21.20;40.90;;;;;;4954874;29;19915;-63
2021/12/30 07:20:02;;;;;;;;;;;21.20;40.90;;;;;;4955039;29;19993;-63
2021/12/30 07:22:27;;;;;;;;;;;21.20;40.90;;;;;;4985431;28;19957;-64
2021/12/30 07:24:53;;;;;;;;;;;21.30;40.90;;;;;;4955210;29;20299;-64
2021/12/30 07:27:18;;;;;;;;;;;21.30;40.90;;;;;;4954687;29;19957;-63
2021/12/30 07:29:43;;;;;;;;;;;21.20;40.80;;;;;;4945636;29;19946;-64
2021/12/30 07:32:09;;;;;;;;;;;21.30;40.80;;;;;;4935686;29;19910;-64
2021/12/30 07:34:34;;;;;;;;;;;21.30;40.80;;;;;;4980988;28;19934;-63
2021/12/30 07:37:00;;;;;;;;;;;21.30;40.70;;;;;;4953882;29;19919;-63
2021/12/30 07:39:25;;;;;;;;;;;21.30;40.70;;;;;;4955261;28;19910;-63
2021/12/30 07:41:51;;;;;;;;;;;21.40;40.80;;;;;;4954483;29;20003;-63
2021/12/30 07:44:16;;;;;;;;;;;21.30;40.70;;;;;;4954949;29;19918;-63
2021/12/30 07:46:42;;;;;;;;;;;21.30;41.30;;;;;;4985996;28;19973;-63
2021/12/30 07:49:07;;;;;;;;;;;21.40;40.80;;;;;;4954970;29;19921;-63
2021/12/30 07:51:33;;;;;;;;;;;21.40;40.80;;;;;;4953814;29;20319;-63
2021/12/30 07:53:58;;;;;;;;;;;21.30;40.70;;;;;;4954450;29;19920;-64
2021/12/30 07:56:23;;;;;;;;;;;21.40;40.80;;;;;;4954375;29;19960;-64
2021/12/30 07:58:49;;;;;;;;;;;21.40;40.70;;;;;;4954475;29;19961;-63
2021/12/30 08:01:14;;;;;;;;;;;21.40;40.80;;;;;;4953981;29;20387;-63
2021/12/30 08:03:40;;;;;;;;;;;21.40;40.70;;;;;;4954393;29;19981;-64
2021/12/30 08:06:05;;;;;;;;;;;21.40;40.70;;;;;;4968728;28;19917;-63
2021/12/30 08:08:31;;;;;;;;;;;21.40;40.70;;;;;;4954273;29;20013;-63
2021/12/30 08:10:56;;;;;;;;;;;21.40;40.70;;;;;;4954252;29;20294;-63
2021/12/30 08:13:23;;;;;;;;;;;21.40;40.70;;;;;;4954392;29;19914;-63
2021/12/30 08:15:49;;;;;;;;;;;21.40;40.70;;;;;;4954104;29;19935;-63
2021/12/30 08:18:14;;;;;;;;;;;21.40;40.70;;;;;;4952479;29;20028;-64
2021/12/30 08:20:40;;;;;;;;;;;21.40;40.70;;;;;;4934791;29;20055;-63
2021/12/30 08:23:05;;;;;;;;;;;21.40;40.70;;;;;;4965833;28;19911;-63
2021/12/30 08:25:31;;;;;;;;;;;21.40;40.70;;;;;;4935045;29;19961;-63
2021/12/30 08:27:56;;;;;;;;;;;21.40;40.70;;;;;;4947583;29;19911;-64
2021/12/30 08:30:22;;;;;;;;;;;21.40;40.70;;;;;;4954256;29;19922;-63
2021/12/30 08:32:47;;;;;;;;;;;21.40;40.70;;;;;;4953951;29;19921;-63
2021/12/30 08:35:13;;;;;;;;;;;21.50;40.70;;;;;;4954000;29;20001;-63
2021/12/30 08:37:39;;;;;;;;;;;21.40;40.70;;;;;;4953363;28;19914;-63
2021/12/30 08:40:05;;;;;;;;;;;21.50;40.80;;;;;;4968993;28;19917;-63
2021/12/30 08:42:31;;;;;;;;;;;21.50;40.70;;;;;;4954062;28;19961;-64
2021/12/30 08:44:57;;;;;;;;;;;21.50;40.70;;;;;;4954052;29;20397;-63
2021/12/30 08:47:23;;;;;;;;;;;21.50;40.80;;;;;;4934762;28;19966;-63
2021/12/30 08:49:48;;;;;;;;;;;21.50;40.60;;;;;;4965778;28;19926;-64
2021/12/30 08:52:14;;;;;;;;;;;21.50;40.60;;;;;;4933970;29;19918;-63
2021/12/30 08:54:39;;;;;;;;;;;21.50;40.60;;;;;;4934695;29;19979;-63
2021/12/30 08:57:05;;;;;;;;;;;21.50;40.60;;;;;;4939764;29;20371;-64
2021/12/30 08:59:30;;;;;;;;;;;21.50;40.60;;;;;;4954224;29;19915;-63
2021/12/30 09:01:56;;;;;;;;;;;21.50;40.60;;;;;;4953720;29;19965;-64
2021/12/30 09:04:21;;;;;;;;;;;21.50;40.70;;;;;;4953916;29;20282;-63
2021/12/30 09:06:47;;;;;;;;;;;21.50;40.70;;;;;;4967883;28;20327;-63
2021/12/30 09:09:12;;;;;;;;;;;21.50;40.70;;;;;;4952325;29;19934;-63
2021/12/30 09:11:38;;;;;;;;;;;21.50;40.80;;;;;;4953565;29;19911;-63
2021/12/30 09:14:03;;;;;;;;;;;21.50;40.80;;;;;;4953765;29;19936;-63
2021/12/30 09:16:28;;;;;;;;;;;21.50;40.80;;;;;;4953501;29;19957;-63
2021/12/30 09:18:54;;;;;;;;;;;21.50;40.70;;;;;;4968654;28;19913;-63
2021/12/30 09:21:19;;;;;;;;;;;21.50;40.80;;;;;;4967802;28;19910;-63
2021/12/30 09:23:45;;;;;;;;;;;21.50;40.80;;;;;;4953701;29;20378;-63
2021/12/30 09:26:10;;;;;;;;;;;21.60;40.80;;;;;;4953450;29;19918;-63
2021/12/30 09:28:36;;;;;;;;;;;21.60;40.80;;;;;;4967851;28;20311;-63
2021/12/30 09:31:01;;;;;;;;;;;21.60;40.80;;;;;;4933025;29;19911;-63
2021/12/30 09:33:27;;;;;;;;;;;21.50;40.80;;;;;;4934580;29;19915;-64
2021/12/30 09:35:52;;;;;;;;;;;21.60;40.90;;;;;;4933753;29;19926;-63
2021/12/30 09:38:18;;;;;;;;;;;21.60;40.90;;;;;;4934610;29;19971;-64
2021/12/30 09:40:44;;;;;;;;;;;21.60;41.00;;;;;;4937800;29;20291;-63
2021/12/30 09:43:11;;;;;;;;;;;21.60;40.90;;;;;;4937978;29;19918;-63
2021/12/30 09:45:38;;;;;;;;;;;21.60;40.90;;;;;;4937722;29;19961;-63
2021/12/30 09:48:04;;;;;;;;;;;21.60;40.90;;;;;;4937753;29;20422;-62
2021/12/30 09:50:49;;;;;;;;;;;21.60;41.00;;;;;;4968090;28;20292;-63
2021/12/30 09:53:16;;;;;;;;;;;21.60;41.10;;;;;;4937776;29;19970;-63
2021/12/30 09:55:41;;;;;;;;;;;21.60;41.00;;;;;;4968032;28;19953;-63
2021/12/30 09:58:07;;;;;;;;;;;21.60;41.10;;;;;;4951982;29;19962;-64
2021/12/30 10:00:32;;;;;;;;;;;21.50;41.10;;;;;;4956502;29;19914;-63
2021/12/30 10:02:58;;;;;;;;;;;21.50;41.90;;;;;;4956412;29;19911;-63
2021/12/30 10:05:24;;;;;;;;;;;21.50;41.40;;;;;;4971370;28;19917;-63
2021/12/30 10:07:50;;;;;;;;;;;21.50;41.40;;;;;;4970523;28;20298;-63
2021/12/30 10:10:26;;;;;;;;;;;21.50;41.40;;;;;;4956647;28;19934;-63
2021/12/30 10:12:51;;;;;;;;;;;21.50;41.50;;;;;;4968010;28;19915;-63
2021/12/30 10:15:19;;;;;;;;;;;21.40;41.50;;;;;;4937368;29;20391;-64
2021/12/30 10:17:45;;;;;;;;;;;21.40;41.50;;;;;;4935804;29;19918;-63
2021/12/30 10:20:29;;;;;;;;;;;21.40;41.50;;;;;;4967780;28;19911;-63
2021/12/30 10:22:56;;;;;;;;;;;21.40;41.60;;;;;;4936686;29;20010;-63
2021/12/30 10:25:24;;;;;;;;;;;21.40;41.70;;;;;;4937158;29;19915;-64
2021/12/30 10:27:50;;;;;;;;;;;21.40;41.70;;;;;;4949287;29;19928;-63
2021/12/30 10:30:31;;;;;;;;;;;21.40;41.60;;;;;;4956359;29;20260;-61
2021/12/30 10:33:08;;;;;;;;;;;21.40;41.70;;;;;;4971205;28;19910;-60
2021/12/30 10:35:35;;;;;;;;;;;21.40;41.60;;;;;;4955862;28;20399;-60
2021/12/30 10:38:01;;;;;;;;;;;21.40;41.50;;;;;;4970412;28;19910;-64
2021/12/30 10:40:27;;;;;;;;;;;21.50;41.60;;;;;;4970826;28;20406;-63
2021/12/30 10:43:11;;;;;;;;;;;21.50;41.50;;;;;;4954467;29;19914;-61
2021/12/30 10:45:37;;;;;;;;;;;21.60;41.50;;;;;;4955913;28;20330;-63
2021/12/30 10:48:02;;;;;;;;;;;21.60;41.40;;;;;;4963740;28;19919;-63
2021/12/30 10:50:27;;;;;;;;;;;21.60;41.40;;;;;;4979196;28;20481;-63
2021/12/30 10:52:54;;;;;;;;;;;21.60;41.40;;;;;;4943431;29;19914;-63
2021/12/30 10:55:19;;;;;;;;;;;21.60;41.30;;;;;;4942135;29;19915;-63
2021/12/30 10:57:45;;;;;;;;;;;21.60;41.20;;;;;;4962328;28;20315;-63
2021/12/30 11:00:11;;;;;;;;;;;21.70;41.30;;;;;;4955442;29;19914;-63
2021/12/30 11:02:36;;;;;;;;;;;21.70;41.40;;;;;;4982383;28;19973;-64
2021/12/30 11:05:07;;;;;;;;;;;21.70;41.40;;;;;;4977300;28;19918;-63
2021/12/30 11:07:40;;;;;;;;;;;21.70;41.80;;;;;;4985082;28;19925;-63
2021/12/30 11:10:06;;;;;;;;;;;21.60;42.50;;;;;;4954842;28;19926;-63
2021/12/30 11:12:33;;;;;;;;;;;21.60;41.90;;;;;;4954972;28;19969;-63
2021/12/30 11:15:00;;;;;;;;;;;21.60;41.90;;;;;;4985504;28;19922;-64
2021/12/30 11:17:33;;;;;;;;;;;21.60;42.00;;;;;;4984650;28;19922;-63
2021/12/30 11:20:00;;;;;;;;;;;21.60;42.40;;;;;;4961323;28;19922;-62
2021/12/30 11:22:26;;;;;;;;;;;21.60;42.50;;;;;;4985163;28;20372;-62
2021/12/30 11:24:52;;;;;;;;;;;21.60;42.60;;;;;;4985256;28;19923;-63
2021/12/30 11:27:18;;;;;;;;;;;21.60;42.60;;;;;;4945846;28;20298;-63
2021/12/30 11:29:45;;;;;;;;;;;21.60;42.70;;;;;;4951033;29;19915;-63
2021/12/30 11:32:13;;;;;;;;;;;21.50;42.60;;;;;;4979140;28;19923;-63
2021/12/30 11:34:38;;;;;;;;;;;21.60;42.70;;;;;;4952952;29;20434;-62
2021/12/30 11:37:04;;;;;;;;;;;21.60;42.60;;;;;;4953263;29;19997;-63
2021/12/30 11:39:29;;;;;;;;;;;21.70;42.50;;;;;;4954053;29;19969;-63
2021/12/30 11:41:56;;;;;;;;;;;21.80;42.30;;;;;;4954174;29;19970;-63
2021/12/30 11:44:37;;;;;;;;;;;21.90;42.20;;;;;;4985426;28;19920;-63
2021/12/30 11:47:03;;;;;;;;;;;22.00;42.10;;;;;;4954125;29;20391;-64
2021/12/30 11:49:47;;;;;;;;;;;22.00;42.00;;;;;;4985347;28;20033;-63
2021/12/30 11:52:13;;;;;;;;;;;22.10;42.00;;;;;;4952657;29;20330;-63
2021/12/30 11:54:39;;;;;;;;;;;22.10;41.90;;;;;;4954017;29;19915;-64
2021/12/30 11:57:24;;;;;;;;;;;22.20;42.00;;;;;;4953755;29;20343;-63
2021/12/30 11:59:49;;;;;;;;;;;22.20;41.90;;;;;;4953972;29;19932;-63
2021/12/30 12:02:30;;;;;;;;;;;22.20;41.90;;;;;;4953394;28;20038;-63
2021/12/30 12:04:56;;;;;;;;;;;22.20;41.90;;;;;;4983619;28;20370;-63
2021/12/30 12:07:22;;;;;;;;;;;22.20;41.90;;;;;;4953284;29;19929;-63
2021/12/30 12:09:48;;;;;;;;;;;22.30;41.90;;;;;;4953810;29;19927;-63
2021/12/30 12:12:14;;;;;;;;;;;22.30;41.90;;;;;;4984372;28;19921;-64
2021/12/30 12:14:59;;;;;;;;;;;22.30;42.00;;;;;;4985386;28;19910;-63
2021/12/30 12:17:30;;;;;;;;;;;22.20;41.90;;;;;;4968654;28;19910;-64
2021/12/30 12:19:56;;;;;;;;;;;22.30;42.00;;;;;;4980445;28;19977;-64
2021/12/30 12:22:21;;;;;;;;;;;22.30;42.10;;;;;;4952646;29;19923;-63
2021/12/30 12:25:07;;;;;;;;;;;22.20;42.10;;;;;;4953130;29;19922;-63
2021/12/30 12:27:33;;;;;;;;;;;22.30;42.00;;;;;;4949630;28;19915;-63
2021/12/30 12:30:00;;;;;;;;;;;22.30;42.00;;;;;;4984981;28;19915;-63
2021/12/30 12:32:32;;;;;;;;;;;22.30;42.10;;;;;;4953571;29;19914;-64
2021/12/30 12:34:58;;;;;;;;;;;22.30;42.10;;;;;;4953294;29;19929;-63
2021/12/30 12:37:29;;;;;;;;;;;22.30;42.10;;;;;;4952844;28;19914;-63
2021/12/30 12:39:56;;;;;;;;;;;22.30;42.10;;;;;;4985181;28;19925;-63
2021/12/30 12:42:28;;;;;;;;;;;22.30;42.10;;;;;;4953558;28;19919;-63
2021/12/30 12:45:12;;;;;;;;;;;22.30;42.10;;;;;;4984037;28;20379;-63
2021/12/30 12:47:38;;;;;;;;;;;22.30;42.20;;;;;;4953420;28;19919;-63
2021/12/30 12:50:07;;;;;;;;;;;22.30;42.20;;;;;;4984806;28;19914;-63
2021/12/30 12:52:58;;;;;;;;;;;22.30;42.20;;;;;;4944355;28;19925;-63
2021/12/30 12:55:24;;;;;;;;;;;22.30;42.40;;;;;;4946152;29;20001;-63
2021/12/30 12:57:49;;;;;;;;;;;22.30;42.50;;;;;;4967825;28;20436;-64
2021/12/30 13:00:15;;;;;;;;;;;22.30;42.40;;;;;;4953206;29;20346;-63
2021/12/30 13:02:46;;;;;;;;;;;22.30;42.40;;;;;;4983456;28;19922;-63
2021/12/30 13:05:14;;;;;;;;;;;22.30;42.40;;;;;;4984633;28;19969;-64
2021/12/30 13:07:40;;;;;;;;;;;22.40;42.40;;;;;;4953097;28;20330;-63
2021/12/30 13:10:05;;;;;;;;;;;22.30;42.50;;;;;;4953429;29;19922;-63
2021/12/30 13:12:35;;;;;;;;;;;22.40;42.50;;;;;;4984443;28;19971;-63
2021/12/30 13:15:00;;;;;;;;;;;22.40;42.60;;;;;;4988189;28;19914;-63
2021/12/30 13:17:26;;;;;;;;;;;22.40;42.60;;;;;;4956471;29;19914;-64
2021/12/30 13:19:52;;;;;;;;;;;22.40;42.70;;;;;;4955697;29;19925;-63
2021/12/30 13:22:19;;;;;;;;;;;22.40;42.80;;;;;;4987004;28;20334;-63
2021/12/30 13:24:47;;;;;;;;;;;22.40;42.90;;;;;;4988117;28;19963;-61
2021/12/30 13:27:12;;;;;;;;;;;22.40;42.90;;;;;;4956034;29;20375;-60
2021/12/30 13:29:39;;;;;;;;;;;22.40;42.90;;;;;;4956779;29;20058;-60
2021/12/30 13:32:06;;;;;;;;;;;22.40;42.80;;;;;;4957028;29;19918;-63
2021/12/30 13:34:31;;;;;;;;;;;22.40;42.90;;;;;;4987616;28;19993;-63
2021/12/30 13:37:10;;;;;;;;;;;22.40;43.00;;;;;;4981828;28;20501;-63
2021/12/30 13:39:35;;;;;;;;;;;22.50;42.90;;;;;;4956577;28;19914;-63
2021/12/30 13:42:01;;;;;;;;;;;22.50;43.00;;;;;;4946497;29;19919;-63
2021/12/30 13:44:40;;;;;;;;;;;22.40;42.90;;;;;;4937811;29;20070;-61
2021/12/30 13:47:14;;;;;;;;;;;22.40;43.00;;;;;;4955580;29;19923;-62
2021/12/30 13:49:40;;;;;;;;;;;22.40;43.00;;;;;;4956877;29;19910;-64
2021/12/30 13:52:05;;;;;;;;;;;22.40;43.00;;;;;;4986775;28;19915;-63
2021/12/30 13:54:31;;;;;;;;;;;22.40;43.10;;;;;;4955887;29;19925;-62
2021/12/30 13:56:56;;;;;;;;;;;22.50;43.20;;;;;;4956122;28;20045;-63
2021/12/30 13:59:21;;;;;;;;;;;22.40;43.10;;;;;;4956366;29;19923;-63
2021/12/30 14:01:47;;;;;;;;;;;22.50;43.20;;;;;;4986534;28;19919;-63
2021/12/30 14:04:17;;;;;;;;;;;22.50;43.20;;;;;;4956159;29;19925;-63
2021/12/30 14:06:43;;;;;;;;;;;22.50;43.20;;;;;;4991184;28;19946;-64
2021/12/30 14:09:12;;;;;;;;;;;22.50;43.30;;;;;;4955338;29;19958;-63
2021/12/30 14:11:42;;;;;;;;;;;22.50;43.30;;;;;;4986243;28;19918;-62
2021/12/30 14:14:08;;;;;;;;;;;22.50;43.30;;;;;;4956225;29;20291;-63